createdAt,value
2017-11-15T00:01:42.831Z,10.90
2017-11-15T00:04:11.192Z,11.10
2017-11-15T00:06:39.513Z,10.90
2017-11-15T00:09:07.798Z,11.40
2017-11-15T00:11:36.091Z,11.10
2017-11-15T00:14:04.401Z,11.10
2017-11-15T00:16:32.781Z,11.10
2017-11-15T00:19:01.034Z,11.00
2017-11-15T00:21:29.299Z,10.90
2017-11-15T00:23:57.565Z,11.00
2017-11-15T00:26:25.846Z,10.90
2017-11-15T00:28:54.893Z,10.80
2017-11-15T00:31:23.956Z,10.80
2017-11-15T00:33:52.260Z,11.00
2017-11-15T00:36:20.537Z,11.00
2017-11-15T00:38:49.621Z,11.10
2017-11-15T00:41:18.102Z,11.00
2017-11-15T00:43:48.705Z,11.10
2017-11-15T00:46:17.215Z,11.20
2017-11-15T00:48:46.271Z,11.10
2017-11-15T00:51:14.529Z,11.00
2017-11-15T00:53:42.851Z,10.90
2017-11-15T00:56:11.171Z,11.20
2017-11-15T00:58:40.195Z,11.30
2017-11-15T01:01:08.510Z,11.10
2017-11-15T01:03:36.784Z,11.30
2017-11-15T01:06:05.075Z,11.40
2017-11-15T01:08:34.112Z,11.30
2017-11-15T01:11:02.413Z,11.30
2017-11-15T01:13:30.671Z,11.50
2017-11-15T01:15:58.989Z,11.60
2017-11-15T01:18:28.052Z,11.50
2017-11-15T01:20:56.314Z,11.40
2017-11-15T01:23:24.583Z,11.50
2017-11-15T01:25:52.856Z,11.50
2017-11-15T01:28:21.456Z,11.50
2017-11-15T01:30:49.699Z,11.20
2017-11-15T01:33:18.048Z,11.20
2017-11-15T01:35:46.343Z,11.10
2017-11-15T01:38:15.617Z,10.80
2017-11-15T01:40:45.663Z,10.90
2017-11-15T01:43:13.978Z,10.90
2017-11-15T01:45:42.243Z,11.00
2017-11-15T01:48:10.533Z,11.00
2017-11-15T01:50:38.847Z,11.10
2017-11-15T01:53:07.138Z,11.20
2017-11-15T01:55:36.154Z,11.20
2017-11-15T01:58:04.455Z,11.10
2017-11-15T02:00:46.278Z,11.20
2017-11-15T02:03:14.566Z,11.20
2017-11-15T02:05:43.715Z,11.20
2017-11-15T02:08:12.003Z,11.30
2017-11-15T02:10:40.313Z,11.20
2017-11-15T02:13:08.620Z,11.40
2017-11-15T02:15:37.678Z,11.20
2017-11-15T02:18:05.943Z,11.50
2017-11-15T02:20:34.298Z,11.30
2017-11-15T02:23:03.643Z,11.20
2017-11-15T02:25:33.490Z,11.30
2017-11-15T02:28:01.800Z,11.20
2017-11-15T02:30:30.147Z,11.30
2017-11-15T02:32:58.416Z,11.20
2017-11-15T02:35:26.723Z,11.20
2017-11-15T02:37:55.042Z,11.30
2017-11-15T02:40:24.130Z,11.50
2017-11-15T02:42:52.449Z,11.30
2017-11-15T02:45:22.286Z,11.30
2017-11-15T02:47:51.144Z,11.50
2017-11-15T02:50:19.443Z,11.30
2017-11-15T02:52:47.723Z,11.70
2017-11-15T02:55:16.032Z,11.60
2017-11-15T02:57:45.277Z,11.60
2017-11-15T03:00:14.334Z,11.50
2017-11-15T03:02:43.482Z,11.80
2017-11-15T03:05:11.797Z,11.40
2017-11-15T03:07:40.325Z,11.80
2017-11-15T03:10:08.772Z,11.70
2017-11-15T03:12:37.073Z,11.60
2017-11-15T03:15:05.355Z,11.50
2017-11-15T03:17:33.656Z,11.50
2017-11-15T03:20:01.971Z,11.30
2017-11-15T03:22:31.242Z,11.60
2017-11-15T03:25:00.441Z,11.40
2017-11-15T03:27:28.810Z,11.30
2017-11-15T03:29:57.104Z,11.50
2017-11-15T03:32:25.386Z,11.30
2017-11-15T03:34:53.762Z,11.30
2017-11-15T03:37:22.022Z,11.20
2017-11-15T03:39:50.353Z,11.20
2017-11-15T03:42:18.619Z,11.30
2017-11-15T03:44:46.906Z,11.30
2017-11-15T03:47:15.278Z,11.00
2017-11-15T03:49:43.539Z,11.10
2017-11-15T03:52:11.858Z,11.20
2017-11-15T03:54:40.955Z,11.20
2017-11-15T03:57:10.072Z,11.30
2017-11-15T03:59:38.419Z,11.40
2017-11-15T04:02:06.903Z,11.20
2017-11-15T04:04:35.218Z,11.20
2017-11-15T04:07:03.504Z,11.20
2017-11-15T04:09:31.818Z,11.40
2017-11-15T04:12:00.092Z,11.10
2017-11-15T04:14:29.121Z,11.20
2017-11-15T04:16:57.454Z,11.20
2017-11-15T04:19:25.748Z,11.20
2017-11-15T04:21:54.083Z,10.90
2017-11-15T04:24:22.393Z,11.00
2017-11-15T04:26:50.774Z,11.00
2017-11-15T04:29:19.055Z,11.30
2017-11-15T04:31:48.135Z,11.30
2017-11-15T04:34:17.248Z,11.20
2017-11-15T04:45:39.534Z,11.40
2017-11-15T04:48:08.625Z,11.10
2017-11-15T04:50:36.897Z,10.90
2017-11-15T04:53:05.947Z,11.30
2017-11-15T04:55:34.214Z,11.20
2017-11-15T04:58:02.472Z,11.20
2017-11-15T05:00:30.743Z,11.20
2017-11-15T05:02:59.022Z,11.40
2017-11-15T05:05:27.282Z,11.30
2017-11-15T05:07:56.385Z,11.30
2017-11-15T05:10:25.425Z,11.40
2017-11-15T05:12:53.673Z,11.40
2017-11-15T05:15:21.947Z,11.20
2017-11-15T05:17:50.222Z,11.10
2017-11-15T05:20:18.467Z,11.40
2017-11-15T05:22:46.765Z,11.20
2017-11-15T05:25:15.042Z,11.20
2017-11-15T05:27:43.310Z,11.30
2017-11-15T05:30:12.185Z,11.20
2017-11-15T05:32:40.462Z,11.40
2017-11-15T05:35:09.596Z,11.30
2017-11-15T05:37:37.876Z,10.90
2017-11-15T05:40:06.249Z,11.30
2017-11-15T05:42:36.155Z,10.90
2017-11-15T05:45:05.220Z,10.90
2017-11-15T05:47:33.522Z,11.30
2017-11-15T05:50:03.928Z,11.40
2017-11-15T05:52:33.968Z,11.20
2017-11-15T05:55:03.789Z,11.30
2017-11-15T05:57:32.281Z,11.30
2017-11-15T06:00:01.646Z,11.10
2017-11-15T06:02:30.003Z,11.10
2017-11-15T06:05:00.962Z,11.30
2017-11-15T06:07:29.306Z,11.30
2017-11-15T06:09:58.556Z,11.20
2017-11-15T06:12:26.952Z,11.10
2017-11-15T06:14:55.361Z,11.10
2017-11-15T06:17:23.743Z,11.10
2017-11-15T06:19:51.904Z,11.00
2017-11-15T06:22:20.246Z,11.00
2017-11-15T06:24:49.087Z,11.10
2017-11-15T06:27:17.604Z,11.20
2017-11-15T06:29:45.881Z,11.20
2017-11-15T06:32:14.278Z,11.40
2017-11-15T06:34:42.750Z,11.20
2017-11-15T06:37:10.992Z,11.30
2017-11-15T06:39:39.386Z,11.10
2017-11-15T06:42:07.638Z,11.30
2017-11-15T06:44:35.973Z,11.20
2017-11-15T06:47:04.477Z,11.10
2017-11-15T06:49:32.739Z,11.30
2017-11-15T06:52:01.010Z,11.10
2017-11-15T06:54:29.299Z,11.10
2017-11-15T06:56:57.574Z,11.20
2017-11-15T06:59:25.874Z,11.10
2017-11-15T07:01:54.400Z,11.20
2017-11-15T07:04:23.584Z,11.10
2017-11-15T07:06:51.830Z,11.20
2017-11-15T07:09:20.120Z,11.20
2017-11-15T07:11:48.418Z,11.20
2017-11-15T07:14:16.655Z,11.30
2017-11-15T07:16:45.119Z,11.20
2017-11-15T07:19:13.362Z,11.50
2017-11-15T07:21:41.633Z,11.40
2017-11-15T07:24:10.854Z,11.50
2017-11-15T07:26:39.315Z,11.30
2017-11-15T07:29:07.563Z,11.20
2017-11-15T07:31:35.851Z,11.40
2017-11-15T07:34:04.147Z,11.40
2017-11-15T07:36:32.518Z,11.40
2017-11-15T07:39:01.532Z,11.20
2017-11-15T07:41:29.782Z,11.20
2017-11-15T07:43:58.082Z,11.20
2017-11-15T07:46:26.487Z,11.40
2017-11-15T07:48:54.809Z,11.50
2017-11-15T07:51:23.073Z,11.30
2017-11-15T07:53:51.356Z,11.30
2017-11-15T07:56:19.634Z,11.30
2017-11-15T07:58:47.914Z,11.30
2017-11-15T08:01:16.189Z,11.30
2017-11-15T08:03:44.469Z,11.40
2017-11-15T08:06:13.668Z,11.30
2017-11-15T08:08:43.677Z,11.30
2017-11-15T08:11:11.957Z,11.20
2017-11-15T08:13:41.057Z,11.30
2017-11-15T08:16:09.294Z,11.20
2017-11-15T08:18:37.568Z,11.50
2017-11-15T08:21:05.856Z,11.60
2017-11-15T08:23:34.193Z,11.20
2017-11-15T08:26:02.442Z,11.50
2017-11-15T08:28:30.740Z,11.50
2017-11-15T08:30:59.015Z,11.50
2017-11-15T08:33:27.290Z,11.50
2017-11-15T08:35:56.539Z,11.50
2017-11-15T08:38:25.696Z,11.80
2017-11-15T08:40:55.126Z,11.80
2017-11-15T08:43:23.480Z,11.50
2017-11-15T08:45:51.725Z,11.70
2017-11-15T08:48:20.058Z,11.80
2017-11-15T08:50:48.322Z,11.60
2017-11-15T08:53:16.604Z,11.50
2017-11-15T08:55:44.865Z,11.60
2017-11-15T08:58:13.150Z,11.60
2017-11-15T09:00:42.396Z,11.90
2017-11-15T09:03:10.838Z,12.00
2017-11-15T09:05:39.217Z,11.80
2017-11-15T09:08:07.479Z,11.90
2017-11-15T09:10:35.773Z,11.90
2017-11-15T09:13:04.049Z,11.90
2017-11-15T09:15:32.326Z,11.70
2017-11-15T09:18:00.636Z,11.90
2017-11-15T09:20:28.895Z,11.90
2017-11-15T09:22:57.567Z,11.70
2017-11-15T09:25:25.873Z,11.60
2017-11-15T09:27:54.143Z,12.20
2017-11-15T09:30:25.910Z,12.10
2017-11-15T09:32:54.941Z,12.10
2017-11-15T09:35:23.201Z,12.10
2017-11-15T09:37:52.421Z,12.20
2017-11-15T09:40:20.846Z,12.20
2017-11-15T09:42:49.346Z,12.20
2017-11-15T09:45:17.662Z,12.30
2017-11-15T09:47:46.124Z,12.60
2017-11-15T09:50:14.456Z,12.70
2017-11-15T09:52:42.749Z,12.60
2017-11-15T09:55:11.029Z,12.80
2017-11-15T09:57:39.314Z,12.60
2017-11-15T10:00:08.375Z,12.80
2017-11-15T10:02:37.519Z,12.90
2017-11-15T10:05:06.588Z,12.80
2017-11-15T10:07:34.831Z,12.80
2017-11-15T10:10:04.798Z,13.00
2017-11-15T10:12:33.856Z,12.60
2017-11-15T10:15:02.108Z,12.70
2017-11-15T10:17:31.360Z,12.60
2017-11-15T10:19:59.713Z,12.70
2017-11-15T10:22:27.966Z,12.40
2017-11-15T10:24:56.216Z,12.70
2017-11-15T10:27:24.660Z,12.40
2017-11-15T10:29:52.937Z,12.40
2017-11-15T10:32:21.189Z,12.60
2017-11-15T10:34:49.470Z,12.50
2017-11-15T10:37:20.399Z,12.70
2017-11-15T10:39:50.202Z,12.40
2017-11-15T10:42:18.457Z,12.40
2017-11-15T10:44:46.734Z,12.50
2017-11-15T10:47:14.994Z,12.50
2017-11-15T10:49:43.277Z,12.30
2017-11-15T10:52:11.670Z,12.30
2017-11-15T10:54:40.851Z,12.40
2017-11-15T10:57:09.295Z,12.30
2017-11-15T10:59:38.317Z,12.50
2017-11-15T11:02:07.339Z,12.40
2017-11-15T11:04:35.654Z,12.50
2017-11-15T11:07:03.901Z,12.40
2017-11-15T11:09:33.140Z,12.60
2017-11-15T11:12:01.578Z,12.60
2017-11-15T11:14:29.832Z,12.50
2017-11-15T11:16:58.252Z,12.40
2017-11-15T11:19:26.548Z,12.70
2017-11-15T11:21:54.939Z,12.60
2017-11-15T11:24:24.142Z,12.50
2017-11-15T11:26:53.182Z,12.50
2017-11-15T11:29:26.272Z,12.50
2017-11-15T11:31:58.016Z,12.50
2017-11-15T11:34:26.366Z,12.60
2017-11-15T11:36:54.650Z,12.60
2017-11-15T11:39:29.977Z,12.50
2017-11-15T11:41:58.442Z,12.70
2017-11-15T11:44:26.698Z,12.80
2017-11-15T11:46:54.966Z,12.80
2017-11-15T11:49:25.157Z,12.50
2017-11-15T11:51:54.160Z,12.50
2017-11-15T11:54:23.357Z,12.80
2017-11-15T11:56:55.988Z,12.70
2017-11-15T11:59:28.199Z,12.70
2017-11-15T12:02:00.074Z,12.70
2017-11-15T12:04:28.378Z,12.50
2017-11-15T12:06:57.822Z,12.80
2017-11-15T12:09:26.914Z,12.90
2017-11-15T12:11:55.933Z,12.70
2017-11-15T12:14:24.188Z,12.60
2017-11-15T12:16:52.458Z,12.50
2017-11-15T12:19:20.777Z,12.70
2017-11-15T12:21:49.027Z,12.90
2017-11-15T12:24:17.326Z,12.80
2017-11-15T12:26:45.602Z,12.70
2017-11-15T12:29:14.013Z,12.70
2017-11-15T12:31:42.442Z,13.00
2017-11-15T12:34:11.614Z,13.00
2017-11-15T12:36:40.051Z,13.00
2017-11-15T12:39:09.322Z,12.90
2017-11-15T12:41:37.637Z,12.80
2017-11-15T12:44:05.926Z,12.90
2017-11-15T12:46:34.383Z,13.10
2017-11-15T12:49:04.399Z,12.80
2017-11-15T12:51:32.626Z,13.00
2017-11-15T12:54:00.883Z,12.90
2017-11-15T12:56:32.641Z,13.10
2017-11-15T12:59:01.718Z,12.90
2017-11-15T13:01:30.991Z,12.80
2017-11-15T13:03:59.284Z,12.90
2017-11-15T13:06:27.666Z,12.90
2017-11-15T13:08:55.944Z,13.10
2017-11-15T13:11:24.694Z,12.90
2017-11-15T13:13:53.025Z,13.20
2017-11-15T13:16:21.291Z,13.10
2017-11-15T13:18:50.377Z,13.10
2017-11-15T13:21:18.654Z,13.20
2017-11-15T13:23:46.906Z,13.20
2017-11-15T13:26:15.217Z,13.20
2017-11-15T13:28:43.494Z,13.20
2017-11-15T13:31:11.794Z,13.10
2017-11-15T13:33:40.104Z,13.10
2017-11-15T13:36:08.354Z,13.10
2017-11-15T13:38:36.759Z,13.10
2017-11-15T13:41:05.058Z,13.00
2017-11-15T13:43:33.474Z,13.20
2017-11-15T13:46:01.751Z,13.10
2017-11-15T13:48:29.991Z,13.10
2017-11-15T13:50:58.252Z,13.20
2017-11-15T13:53:26.959Z,12.80
2017-11-15T13:55:55.230Z,13.10
2017-11-15T13:58:23.519Z,12.90
2017-11-15T14:00:52.024Z,12.90
2017-11-15T14:03:21.049Z,13.00
2017-11-15T14:05:50.214Z,12.80
2017-11-15T14:08:18.442Z,12.70
2017-11-15T14:10:46.714Z,13.00
2017-11-15T14:13:15.045Z,12.70
2017-11-15T14:15:43.283Z,13.00
2017-11-15T14:18:11.611Z,12.80
2017-11-15T14:20:40.875Z,12.90
2017-11-15T14:23:09.927Z,13.00
2017-11-15T14:25:39.202Z,13.00
2017-11-15T14:28:07.470Z,12.90
2017-11-15T14:30:35.769Z,13.20
2017-11-15T14:33:04.794Z,13.10
2017-11-15T14:35:33.127Z,13.00
2017-11-15T14:38:01.352Z,13.00
2017-11-15T14:40:29.631Z,12.80
2017-11-15T14:42:58.794Z,13.00
2017-11-15T14:45:28.941Z,13.20
2017-11-15T14:47:57.198Z,13.10
2017-11-15T14:50:25.450Z,12.90
2017-11-15T14:52:54.513Z,12.90
2017-11-15T14:55:23.563Z,13.00
2017-11-15T14:57:51.896Z,12.80
2017-11-15T15:00:20.205Z,12.70
2017-11-15T15:02:48.487Z,12.80
2017-11-15T15:05:17.735Z,12.80
2017-11-15T15:07:46.009Z,13.10
2017-11-15T15:10:14.288Z,13.20
2017-11-15T15:12:42.625Z,13.10
2017-11-15T15:15:11.225Z,13.20
2017-11-15T15:17:39.545Z,13.00
2017-11-15T15:20:07.803Z,13.10
2017-11-15T15:22:36.041Z,13.00
2017-11-15T15:25:04.287Z,12.80
2017-11-15T15:27:33.415Z,13.10
2017-11-15T15:30:01.712Z,13.20
2017-11-15T15:32:29.974Z,12.90
2017-11-15T15:34:58.227Z,12.90
2017-11-15T15:37:26.998Z,12.80
2017-11-15T15:39:55.271Z,12.70
2017-11-15T15:42:23.537Z,12.90
2017-11-15T15:44:51.778Z,12.80
2017-11-15T15:47:20.093Z,13.20
2017-11-15T15:49:48.530Z,13.10
2017-11-15T15:52:16.804Z,13.10
2017-11-15T15:54:45.324Z,12.80
2017-11-15T15:57:13.571Z,12.80
2017-11-15T15:59:42.059Z,13.20
2017-11-15T16:02:11.215Z,12.90
2017-11-15T16:04:40.277Z,13.30
2017-11-15T16:07:09.342Z,12.90
2017-11-15T16:09:37.610Z,12.80
2017-11-15T16:12:05.939Z,12.80
2017-11-15T16:14:34.210Z,13.00
2017-11-15T16:17:03.314Z,13.10
2017-11-15T16:19:31.616Z,12.90
2017-11-15T16:21:59.867Z,12.90
2017-11-15T16:24:28.134Z,13.20
2017-11-15T16:26:56.581Z,13.20
2017-11-15T16:29:24.838Z,13.20
2017-11-15T16:31:54.655Z,12.90
2017-11-15T16:34:22.966Z,13.10
2017-11-15T16:36:51.214Z,13.00
2017-11-15T16:39:19.833Z,13.20
2017-11-15T16:41:48.175Z,13.00
2017-11-15T16:44:17.322Z,12.80
2017-11-15T16:46:45.792Z,13.00
2017-11-15T16:49:15.284Z,12.90
2017-11-15T16:51:44.617Z,12.80
2017-11-15T16:54:13.670Z,12.90
2017-11-15T16:56:41.973Z,12.90
2017-11-15T16:59:10.285Z,12.90
2017-11-15T17:01:38.615Z,13.00
2017-11-15T17:04:08.538Z,13.00
2017-11-15T17:06:37.662Z,12.70
2017-11-15T17:09:08.736Z,12.90
2017-11-15T17:11:37.105Z,12.70
2017-11-15T17:14:09.429Z,12.90
2017-11-15T17:16:46.836Z,12.90
2017-11-15T17:19:17.080Z,13.20
2017-11-15T17:21:45.405Z,13.20
2017-11-15T17:24:18.306Z,13.00
2017-11-15T17:26:47.323Z,13.00
2017-11-15T17:29:15.586Z,13.10
2017-11-15T17:31:44.648Z,13.00
2017-11-15T17:34:12.915Z,12.80
2017-11-15T17:36:41.208Z,13.10
2017-11-15T17:39:11.187Z,13.20
2017-11-15T17:41:39.556Z,12.90
2017-11-15T17:44:08.316Z,12.80
2017-11-15T17:46:37.492Z,12.80
2017-11-15T17:49:06.559Z,12.80
2017-11-15T17:51:34.917Z,12.90
2017-11-15T17:54:03.282Z,13.10
2017-11-15T17:56:31.784Z,13.30
2017-11-15T17:59:00.416Z,13.10
2017-11-15T18:01:28.676Z,13.20
2017-11-15T18:03:56.954Z,13.00
2017-11-15T18:06:25.237Z,13.30
2017-11-15T18:08:55.136Z,13.10
2017-11-15T18:11:25.839Z,13.10
2017-11-15T18:13:56.990Z,13.20
2017-11-15T18:16:27.011Z,13.20
2017-11-15T18:18:55.498Z,13.10
2017-11-15T18:21:24.399Z,13.20
2017-11-15T18:23:52.853Z,13.30
2017-11-15T18:26:21.152Z,13.20
2017-11-15T18:28:49.499Z,12.80
2017-11-15T18:31:17.913Z,13.40
2017-11-15T18:33:47.536Z,13.10
2017-11-15T18:36:16.413Z,13.30
2017-11-15T18:38:46.146Z,13.30
2017-11-15T18:41:16.033Z,13.30
2017-11-15T18:43:50.911Z,13.40
2017-11-15T18:46:19.884Z,13.40
2017-11-15T18:48:49.594Z,13.20
2017-11-15T18:51:19.306Z,13.10
2017-11-15T18:53:48.141Z,13.20
2017-11-15T18:56:20.914Z,13.10
2017-11-15T18:58:49.653Z,13.30
2017-11-15T19:01:18.343Z,13.20
2017-11-15T19:03:47.027Z,13.30
2017-11-15T19:06:15.710Z,13.00
2017-11-15T19:08:44.601Z,13.10
2017-11-15T19:11:13.524Z,13.10
2017-11-15T19:13:42.258Z,13.00
2017-11-15T19:16:10.883Z,13.20
2017-11-15T19:18:42.312Z,12.80
2017-11-15T19:21:12.034Z,12.90
2017-11-15T19:23:40.715Z,12.80
2017-11-15T19:26:11.652Z,13.10
2017-11-15T19:28:40.973Z,12.80
2017-11-15T19:31:09.828Z,13.10
2017-11-15T19:33:38.728Z,12.80
2017-11-15T19:36:09.246Z,13.00
2017-11-15T19:38:37.947Z,13.00
2017-11-15T19:41:06.614Z,12.80
2017-11-15T19:43:36.321Z,12.90
2017-11-15T19:46:05.027Z,12.90
2017-11-15T19:48:33.919Z,13.10
2017-11-15T19:51:06.825Z,12.80
2017-11-15T19:53:37.451Z,12.70
2017-11-15T19:56:10.217Z,12.60
2017-11-15T19:58:39.703Z,12.80
2017-11-15T20:01:10.454Z,12.80
2017-11-15T20:03:39.142Z,12.80
2017-11-15T20:06:10.287Z,12.90
2017-11-15T20:08:39.382Z,13.10
2017-11-15T20:11:08.070Z,13.00
2017-11-15T20:13:37.230Z,12.80
2017-11-15T20:16:05.848Z,12.60
2017-11-15T20:18:34.862Z,12.50
2017-11-15T20:21:03.826Z,12.40
2017-11-15T20:23:33.499Z,12.50
2017-11-15T20:26:02.221Z,12.50
2017-11-15T20:28:30.892Z,12.50
2017-11-15T20:31:01.853Z,12.80
2017-11-15T20:33:30.252Z,12.70
2017-11-15T20:35:59.349Z,12.70
2017-11-15T20:38:27.623Z,12.80
2017-11-15T20:40:55.985Z,12.60
2017-11-15T20:43:25.248Z,12.70
2017-11-15T20:45:53.532Z,12.40
2017-11-15T20:48:21.803Z,12.40
2017-11-15T20:50:50.201Z,12.70
2017-11-15T20:53:18.485Z,12.70
2017-11-15T20:55:46.942Z,12.60
2017-11-15T20:58:15.311Z,12.80
2017-11-15T21:00:43.566Z,12.90
2017-11-15T21:03:11.843Z,12.80
2017-11-15T21:05:40.760Z,12.60
2017-11-15T21:08:09.025Z,12.80
2017-11-15T21:10:38.376Z,12.50
2017-11-15T21:13:08.300Z,12.80
2017-11-15T21:15:36.579Z,12.60
2017-11-15T21:18:04.838Z,12.70
2017-11-15T21:20:33.262Z,12.60
2017-11-15T21:23:02.294Z,12.40
2017-11-15T21:25:31.737Z,12.50
2017-11-15T21:28:00.254Z,12.70
2017-11-15T21:30:29.933Z,12.80
2017-11-15T21:32:58.186Z,12.50
2017-11-15T21:35:26.505Z,12.50
2017-11-15T21:37:54.853Z,12.70
2017-11-15T21:40:23.949Z,13.00
2017-11-15T21:42:53.164Z,13.00
2017-11-15T21:45:21.481Z,12.80
2017-11-15T21:47:50.493Z,12.90
2017-11-15T21:50:18.913Z,12.90
2017-11-15T21:52:48.899Z,12.90
2017-11-15T21:55:17.187Z,12.80
2017-11-15T21:57:45.520Z,12.70
2017-11-15T22:00:13.828Z,12.70
2017-11-15T22:02:43.082Z,12.70
2017-11-15T22:05:11.494Z,12.70
2017-11-15T22:07:40.093Z,12.90
2017-11-15T22:10:08.363Z,12.50
2017-11-15T22:12:36.734Z,12.70
2017-11-15T22:15:05.050Z,12.80
2017-11-15T22:17:33.520Z,12.70
2017-11-15T22:20:02.026Z,12.40
2017-11-15T22:22:31.329Z,12.70
2017-11-15T22:24:59.765Z,12.90
2017-11-15T22:27:28.055Z,12.70
2017-11-15T22:29:57.122Z,13.00
2017-11-15T22:32:26.649Z,12.80
2017-11-15T22:34:54.938Z,12.60
2017-11-15T22:37:23.285Z,12.60
2017-11-15T22:39:52.398Z,12.70
2017-11-15T22:42:21.669Z,12.70
2017-11-15T22:44:49.947Z,12.50
2017-11-15T22:47:18.285Z,12.60
2017-11-15T22:49:46.612Z,12.30
2017-11-15T22:52:14.929Z,12.40
2017-11-15T22:54:44.107Z,12.60
2017-11-15T22:57:12.459Z,12.60
2017-11-15T22:59:42.277Z,12.30
2017-11-15T23:02:10.702Z,12.40
2017-11-15T23:04:39.025Z,12.40
2017-11-15T23:07:08.196Z,12.50
2017-11-15T23:09:36.555Z,12.50
2017-11-15T23:12:04.907Z,12.70
2017-11-15T23:14:33.286Z,12.60
2017-11-15T23:17:03.334Z,12.30
2017-11-15T23:19:31.741Z,12.50
2017-11-15T23:22:00.050Z,12.50
2017-11-15T23:24:28.623Z,12.30
2017-11-15T23:26:56.974Z,12.60
2017-11-15T23:29:25.533Z,12.30
2017-11-15T23:31:53.894Z,12.60
2017-11-15T23:34:24.733Z,12.50
2017-11-15T23:37:02.527Z,12.50
2017-11-15T23:39:31.686Z,12.10
2017-11-15T23:42:00.778Z,12.40
2017-11-15T23:44:29.087Z,12.50
2017-11-15T23:46:57.511Z,12.30
2017-11-15T23:49:27.633Z,12.40
2017-11-15T23:51:55.900Z,12.30
2017-11-15T23:54:25.010Z,12.30
2017-11-15T23:56:53.293Z,12.40
2017-11-15T23:59:21.561Z,12.40
